Ride Results

Wunderful Widgee (20-07-2008)
Ride distance: 81.0 km

Outcomes - Wunderful Widgee (20-07-2008)
Division No. of Entries Retired / DNE Completed Withdrawn Ineligible V/O Percentage Completed
HW 16 - 12 - - 4 75.00%
MW 42 - 34 - 1 7 80.95%
LW 25 - 19 1 - 5 76.00%
JN 6 - 6 - - - 100.00%
Totals 89 - 71 1 1 16 79.78%
Results - Wunderful Widgee (20-07-2008)
No. Rider Horse Place Time Leg Speeds Total
Km/Hr
H/R bpm
Heavyweight
23 Paul Lengronne Cherox Kariim 1 5:06:00 19.8, 12.9 15.88 29, 45, 50 (Avg:47)
34 Peter McDonald Wollumbin Farah 2 (BC) 5:30:00 20.3, 11.2 14.73 36, 50, 45 (Avg:47)
233 Tim Weismann Danic Park Miss Julianne 3 6:08:00 13.9, 12.4 13.21 38, 49, 52 (Avg:50)
215 Alwyn Torenbeek Pinfeather 4 6:35:00 13.9, 10.8 12.30 37, 46, 49 (Avg:47)
243 Dan Winkel Roheryn Cavalier 5 6:37:00 13.7, 10.8 12.24 33, 42, 49 (Avg:45)
229 Jeff Trevarthen Sarandeep 6 6:52:00 13.5, 10.3 11.80 31, 42, 43 (Avg:42)
222 Suzanne Smith Talbarear Rapier 7 6:59:00 12.8, 10.4 11.60 50, 45, 45 (Avg:45)
7 Peter Casey Lagoon Hill Rapadash 8 7:21:00 13.7, 8.9 11.02 33, 43, 45 (Avg:44)
216 Paul Fitzgerald Lanamere Nightmusic 9 7:23:00 13.2, 9.1 10.97 36, 41, 40 (Avg:40)
204 David Grove Aloha Delphic 10 7:56:00 12.1, 8.6 10.21 35, 43, 44 (Avg:43)
249 Kristan Kershaw Shardell Galazan 11 8:07:00 10.5, 9.3 9.98 34, 40, 46 (Avg:43)
202 Ivan Sampson Hilbrae Kaseno 12 8:24:00 10.3, 8.9 9.64 31, 39, 40 (Avg:39)
248 Gerard Bou Naadem Heart Rate L2 0:00:00 10.5, 9.3 - 40, 49, 65 (Avg:57)
19 Anthony Caslin Timeless Heart Rate L2 0:00:00 20.3, 17.5 - 40, 52, 61 (Avg:56)
38 Mark Nimon Abbeywood Rumor Lame L1 0:00:00 15.5 - 36, 40 (Avg:40)
29 David Pembroke Rahim Whispah Lame L1 0:00:00 16.8 - 27, 38 (Avg:38)
Middleweight
15 Judy Battams Nangamba Alisaar 1 4:17:00 20.3, 17.5 18.91 34, 45, 49 (Avg:47)
20 Wayne McKinnon Dunbar Lexus 1 (BC) 4:17:00 20.3, 17.5 18.91 34, 38, 40 (Avg:39)
21 Dale Hargreaves Sundust Frisco 3 4:54:00 20.1, 13.7 16.53 36, 46, 47 (Avg:46)
22 Marion Lengronne Karim's Pride 4 5:06:00 19.8, 12.9 15.88 31, 36, 49 (Avg:42)
10 Vanessa Tiffen Hirstglen Mustang Sally 5 5:11:00 16.8, 14.4 15.63 48, 48, 52 (Avg:50)
16 Jodie Vickery Rodborough Eclipse 6 5:25:02 16.1, 13.8 14.95 30, 39, 44 (Avg:41)
11 Julie Kemp Al Baraq 7 5:40:00 15.4, 13.1 14.29 39, 44, 48 (Avg:46)
12 Peter Pike Sundust Jack 7 5:40:00 15.4, 13.1 14.29 34, 43, 52 (Avg:47)
30 Gayle Holmes Aloha Spartacus 9 5:44:01 15.2, 13.0 14.13 36, 40, 43 (Avg:41)
9 Donna Brooker Hirstglen Zepplin 10 5:44:04 15.2, 13.0 14.13 33, 42, 46 (Avg:44)
227 Carolyn Strahan Shahreena 'Al Amira 11 6:19:00 13.9, 11.7 12.82 27, 41, 46 (Avg:43)
36 Robert Sutton Zenith Park Quigley 11 6:19:00 14.4, 11.3 12.82 36, 44, 46 (Avg:45)
214 Trevor Copland Coal Dust 13 6:35:00 13.9, 10.8 12.30 31, 43, 48 (Avg:45)
14 Wendy Smith Midu Jacelle 14 6:36:00 15.5, 9.9 12.27 40, 48, 44 (Avg:46)
3 Adrian Brickley Crysari 15 6:40:00 13.2, 11.0 12.15 32, 39, 48 (Avg:43)
205 Paul Brown Brookleigh Brogan 16 6:43:00 12.7, 11.3 12.06 34, 42, 44 (Avg:43)
250 Sally Summers Harry Potter 16 6:43:00 13.7, 10.5 12.06 37, 42, 47 (Avg:44)
231 Janice Burt Roshar Talima 18 6:50:00 13.1, 10.6 11.85 41, 53, 54 (Avg:53)
228 Tanya Zanow Cicada Lodge Oliver Twist 19 6:52:00 13.5, 10.3 11.80 44, 47, 56 (Avg:51)
201 Derek Armitage Burralga Jack Daniels 20 6:54:00 12.8, 10.6 11.74 36, 43, 46 (Avg:44)
2 Heather Roberts Bagherra Bethany 21 6:59:00 14.5, 9.4 11.60 36, 41, 48 (Avg:44)
238 Jodie Salinas Bourhani Albaraq 22 7:04:00 12.4, 10.5 11.46 32, 40, 48 (Avg:44)
212 Heather Parry Miss Dee Fi 23 7:21:00 13.2, 9.2 11.02 31, 37, 44 (Avg:40)
217 Caroline Fitzgerald Lanamere Forte 24 7:23:00 13.2, 9.1 10.97 36, 43, 46 (Avg:44)
245 Lee Edwards Melcot Samara 25 7:30:00 11.7, 9.9 10.80 32, 43, 49 (Avg:46)
220 Debbie Forsdike Bacchante Valentina 25 7:30:00 11.7, 9.9 10.80 31, 41, 48 (Avg:44)
218 Robert Manwaring Amberwood Nemesia 27 7:46:00 12.3, 8.8 10.43 36, 46, 56 (Avg:51)
246 Errol Watt Maioro Nakita 27 7:46:00 11.7, 9.2 10.43 47, 43, 47 (Avg:45)
230 Lynne Drinkwater Red Gum Sundance 29 7:50:00 12.2, 8.8 10.34 35, 43, 47 (Avg:45)
241 Damien Keys Elfar Sword O'Fire 30 7:56:00 12.1, 8.6 10.21 35, 38, 42 (Avg:40)
39 Olga Bartlett Cingala Royalle 31 7:59:00 11.0, 9.3 10.15 39, 49, 44 (Avg:46)
27 Robyn Pembroke Mt Eerwah Silverado 32 8:03:00 15.2, 7.2 10.06 27, 38, 47 (Avg:42)
25 Anne Barlow Tyto Ivan 33 8:04:00 11.0, 9.1 10.04 38, 43, 50 (Avg:46)
244 Hitomi Yaguramaki Lilonda Count Richael 34 8:07:00 10.5, 9.3 9.98 37, 44, 50 (Avg:47)
208 Camila Champagne-Bargenquast Brookleigh Callista Heart Rate L2 0:00:00 12.7, 11.2 - 36, 37, 62 (Avg:49)
224 Sarrah Lee Fenech Dunbar Shiloh Heart Rate L2 0:00:00 13.9, 11.7 - 34, 45, 68 (Avg:56)
221 Jeni Martin Mirrigen Houndini Lame L2 0:00:00 13.9, 10.4 - 33, 43, 49 (Avg:46)
26 Jen Weise Matta Mia Diheb Heart Rate L2 0:00:00 13.9, 13.8 - 30, 39, 72 (Avg:55)
209 Jackie Gilks Cameo Courtezan Lame L1 0:00:00 12.8 - 30, 45 (Avg:45)
247 Rachel Hazzard Melcot Bella Lame L1 0:00:00 11.7 - 30, 37 (Avg:37)
17 Karen Mendoza Allyndah Expectation Lame L1 0:00:00 13.2 - 29, 45 (Avg:45)
240 Victor Slade Karbrook Romeo Disqualified L1 0:00:00 17.3 - 41, 46 (Avg:46)
Lightweight
24 Sally Genninges Arinya Park Nazzerin 1 (BC) 5:06:00 20.1, 12.8 15.88 27, 45, 40 (Avg:42)
18 Sue Sutcliffe Saayid's Simply Red 2 5:07:00 18.1, 13.8 15.83 30, 52, 46 (Avg:49)
35 Amaya Thomas Pilgrim 3 5:11:00 16.8, 14.4 15.63 36, 44, 47 (Avg:45)
4 Bridget Campbell Cameo Kinshaza 4 5:25:00 16.0, 13.9 14.95 36, 41, 48 (Avg:44)
32 Christine Christie Reg 5 5:44:25 15.5, 12.7 14.11 38, 40, 54 (Avg:47)
33 Amanda Powell Summit Park Raz 6 6:12:00 15.5, 11.0 13.06 25, 39, 50 (Avg:44)
226 Kym Dyball Anniversary Wish 7 6:34:00 13.7, 11.0 12.34 39, 46, 48 (Avg:47)
242 Karen Winkel Xanadu Barabbous 8 6:37:00 13.7, 10.8 12.24 36, 49, 43 (Avg:46)
225 Clarissa Auterson Rowallan Mitchell 9 6:43:00 13.9, 10.4 12.06 35, 43, 56 (Avg:49)
206 Saasha Grogan Rodborough Chardonnay 9 6:43:00 12.7, 11.3 12.06 33, 44, 48 (Avg:46)
40 Della Weier Kahshah 9 6:43:00 13.7, 10.5 12.06 34, 40, 44 (Avg:42)
207 Alissa Klingberg Aloha Zalik 12 6:44:00 12.7, 11.2 12.03 37, 44, 45 (Avg:44)
239 Lisa Sanchez Matrix Maker 13 7:46:00 12.3, 8.8 10.43 44, 55, 48 (Avg:51)
213 Ainsley King Willowvale Sirahh 14 7:50:00 12.4, 8.6 10.34 35, 42, 44 (Avg:43)
13 Cathy Herve Hilbrae Maxine 15 8:04:00 11.0, 9.1 10.04 51, 41, 44 (Avg:42)
211 Susan Kelman Jayhal Moonlight 15 8:04:00 11.7, 8.6 10.04 34, 36, 45 (Avg:40)
210 Mary Sims Lizzie 15 8:04:00 11.7, 8.6 10.04 34, 45, 46 (Avg:45)
37 Hayumi Sekiguchi Aratahnes Galaxy 18 8:07:00 10.5, 9.3 9.98 32, 38, 43 (Avg:40)
203 Julie Fletcher Glendinning Countess 19 8:24:00 10.3, 8.9 9.64 31, 39, 42 (Avg:40)
237 Diane Wilson Agecroft Fada Heart Rate L2 0:00:00 10.5, 9.1 - 42, 45, 88 (Avg:66)
6 Tylana Woodward Tallow Wood Sa Hassan Heart Rate L2 0:00:00 19.8, 12.9 - 43, 40, 62 (Avg:51)
219 Sean Crew Linslea Park Sir Lancelot Lame L1 0:00:00 12.4 - 44, 54 (Avg:54)
28 Carla Jones Mt Eerwah Anastazia Lame L1 0:00:00 16.8 - 28, 41 (Avg:41)
232 Janelle Weise Esscort's True Confessions Lame L1 0:00:00 11.7 - 29, 40 (Avg:40)
5 Yvonne Knight Manana Gaylord Widthdrawn P/R 0:00:00 - - 33
Junior
31 Ingrid Ambrosiussen Shanti 1 5:44:07 15.2, 13.0 14.12 36, 41, 53 (Avg:47)
8 Sharn Brooker Hirstglen Maybe 2 (BC) 5:44:10 15.2, 13.0 14.12 33, 39, 47 (Avg:43)
235 Jess Dakin Yul-Arai Hajeel 3 6:08:00 13.8, 12.5 13.21 36, 43, 54 (Avg:48)
234 Jamie Green Maverick 3 6:08:00 13.9, 12.4 13.21 37, 45, 50 (Avg:47)
236 Tasha Jeremy Tamar 3 6:08:00 13.8, 12.5 13.21 36, 45, 48 (Avg:46)
1 Jade Vergis Meltharina Maralyc 6 6:43:00 12.7, 11.3 12.06 32, 41, 45 (Avg:43)